Ranchos, Argentina
Current Conditions -  °F | °C
As of 10:00 PM on Friday 21 Nov 2014 (Local Time) from SAEZ Reporting Station
Overcast Overcast  
Wind Chill: 57°   Ceiling: 8000
Heat Index: 57°   Visibility: 5mi
Dew Point: 55°   Wind: 5mph
Humidity: 94%   Direction: 180°S
Pressure: 29.91"   Gusts: NA
Location:  35.52°S, 58.3°W
Report Text: SAEZ 220100Z 18004KT 8000 FEW020 OVC080 14/13 Q1013
Loading
Personal Weather Stations






























Interactive Weather Map New forecast layout! Learn more

10-Day Weather Forecast

Advertisements
Track Severe Weather on mobile